createdAt,value
2023-03-11T00:01:47.716Z,31.33
2023-03-11T00:04:15.557Z,32.85
2023-03-11T00:06:43.499Z,30.95
2023-03-11T00:09:11.373Z,32.28
2023-03-11T00:11:39.266Z,32.58
2023-03-11T00:14:08.494Z,31.90
2023-03-11T00:16:36.485Z,36.03
2023-03-11T00:19:04.487Z,34.65
2023-03-11T00:21:32.387Z,36.75
2023-03-11T00:24:03.536Z,33.40
2023-03-11T19:09:06.645Z,4.63
2023-03-11T19:11:34.751Z,2.67
2023-03-11T19:14:02.696Z,4.72
2023-03-11T19:16:30.937Z,4.38
2023-03-11T19:18:58.880Z,1.42
2023-03-11T19:21:26.891Z,2.85
2023-03-11T19:23:56.420Z,1.15
2023-03-11T19:26:43.259Z,3.13
2023-03-11T19:29:12.655Z,3.97
2023-03-11T19:31:40.748Z,7.07
2023-03-11T19:34:08.721Z,7.38
2023-03-11T19:36:36.641Z,12.25
2023-03-11T19:39:04.727Z,11.77
2023-03-11T19:41:33.960Z,7.05
2023-03-11T19:44:04.023Z,10.40
2023-03-11T19:46:34.528Z,11.90
2023-03-11T19:49:02.883Z,15.77
2023-03-11T19:51:42.714Z,26.45
2023-03-11T19:54:17.020Z,16.75
2023-03-11T19:56:46.464Z,13.73
2023-03-11T19:59:14.590Z,13.90
2023-03-11T20:01:43.180Z,17.65
2023-03-11T20:04:11.331Z,16.15
2023-03-11T20:06:39.467Z,17.55
2023-03-11T20:09:07.820Z,17.60
2023-03-11T20:11:38.957Z,15.65
2023-03-11T20:14:08.565Z,15.00
2023-03-11T20:16:36.630Z,17.13
2023-03-11T20:19:05.092Z,15.88
2023-03-11T20:21:33.308Z,18.33
2023-03-11T20:24:01.659Z,18.75
2023-03-11T20:26:29.586Z,13.57
2023-03-11T20:28:58.048Z,16.13
2023-03-11T20:31:28.864Z,18.10
2023-03-11T20:34:00.085Z,16.90
2023-03-11T20:36:31.156Z,15.82
2023-03-11T20:38:59.544Z,18.13
2023-03-11T20:41:28.861Z,19.02
2023-03-11T20:43:57.937Z,18.63
2023-03-11T20:46:27.277Z,20.65
2023-03-11T20:48:55.268Z,19.35
2023-03-11T20:51:25.042Z,18.77
2023-03-11T20:53:53.345Z,16.55
2023-03-11T20:56:23.851Z,23.52
2023-03-11T20:58:52.494Z,19.88
2023-03-11T21:01:23.397Z,21.73
2023-03-11T21:03:54.192Z,20.40
2023-03-11T21:06:24.382Z,18.77
2023-03-11T21:08:54.963Z,18.83
2023-03-11T21:11:23.554Z,15.43
2023-03-11T21:13:51.995Z,18.50
2023-03-11T21:16:20.485Z,16.80
2023-03-11T21:18:49.522Z,18.13
2023-03-11T21:21:19.743Z,14.45
2023-03-11T21:23:48.861Z,15.93
2023-03-11T21:26:18.351Z,17.80
2023-03-11T21:28:47.104Z,12.57
2023-03-11T21:31:17.167Z,13.65
2023-03-11T21:33:45.958Z,14.13
2023-03-11T21:36:15.245Z,13.57
2023-03-11T21:38:44.851Z,16.33
2023-03-11T21:41:14.998Z,15.18
2023-03-11T21:43:43.531Z,15.35
2023-03-11T21:46:13.676Z,19.20
2023-03-11T21:48:41.916Z,16.02
2023-03-11T21:51:09.892Z,18.15
2023-03-11T21:53:38.158Z,15.80
2023-03-11T21:56:08.675Z,19.48
2023-03-11T21:58:37.045Z,18.05
2023-03-11T22:01:05.335Z,21.50
2023-03-11T22:03:35.814Z,20.90
2023-03-11T22:06:06.365Z,24.08
2023-03-11T22:08:35.242Z,25.27
2023-03-11T22:11:03.470Z,24.42
2023-03-11T22:13:32.831Z,29.75
2023-03-11T22:16:03.806Z,32.70
2023-03-11T22:18:32.038Z,34.72
2023-03-11T22:21:00.224Z,24.00
2023-03-11T22:23:28.358Z,29.80
2023-03-11T22:25:56.642Z,28.17
2023-03-11T22:28:24.878Z,33.50
2023-03-11T22:30:54.120Z,26.17
2023-03-11T22:33:22.020Z,22.98
2023-03-11T22:35:51.647Z,24.05
2023-03-11T22:38:19.618Z,26.60
2023-03-11T22:40:47.543Z,29.45
2023-03-11T22:43:15.778Z,23.88
2023-03-11T22:45:44.955Z,26.15
2023-03-11T22:48:14.457Z,26.20
2023-03-11T22:50:44.255Z,34.75
2023-03-11T22:53:12.232Z,28.38
2023-03-11T22:55:41.030Z,29.27
2023-03-11T22:58:09.404Z,32.20
2023-03-11T23:00:37.903Z,30.08
2023-03-11T23:03:06.515Z,32.22
2023-03-11T23:05:41.994Z,24.42
2023-03-11T23:08:11.212Z,27.40
2023-03-11T23:10:41.333Z,33.35
2023-03-11T23:13:09.282Z,31.15
2023-03-11T23:15:37.555Z,32.53
2023-03-11T23:18:05.958Z,33.90
2023-03-11T23:20:37.978Z,30.35
2023-03-11T23:23:06.647Z,33.65
2023-03-11T23:25:35.561Z,30.65
2023-03-11T23:28:04.966Z,34.92
2023-03-11T23:30:33.676Z,30.17
2023-03-11T23:33:02.730Z,35.45
2023-03-11T23:35:30.893Z,30.17
2023-03-11T23:38:00.868Z,28.30
2023-03-11T23:40:29.256Z,32.63
2023-03-11T23:42:57.190Z,36.45
2023-03-11T23:45:25.284Z,31.75
2023-03-11T23:47:53.220Z,31.02
2023-03-11T23:50:21.264Z,29.67
2023-03-11T23:52:49.128Z,27.77
2023-03-11T23:55:18.531Z,29.75
2023-03-11T23:57:46.439Z,29.25
